createdAt,value
2022-10-26T00:01:21.720Z,5.73
2022-10-26T00:03:50.648Z,9.20
2022-10-26T00:06:19.329Z,4.57
2022-10-26T00:08:47.778Z,4.33
2022-10-26T00:11:15.529Z,7.90
2022-10-26T00:13:43.033Z,5.30
2022-10-26T00:16:11.506Z,4.23
2022-10-26T00:18:39.035Z,10.33
2022-10-26T00:21:08.723Z,3.37
2022-10-26T00:23:36.199Z,3.97
2022-10-26T00:26:04.034Z,5.57
2022-10-26T00:28:31.916Z,5.17
2022-10-26T00:31:01.476Z,3.93
2022-10-26T00:33:30.079Z,6.70
2022-10-26T00:35:57.746Z,9.87
2022-10-26T00:38:26.605Z,3.83
2022-10-26T00:40:54.095Z,5.37
2022-10-26T00:43:40.218Z,7.20
2022-10-26T00:46:09.375Z,4.60
2022-10-26T00:48:38.674Z,4.73
2022-10-26T00:51:08.051Z,7.43
2022-10-26T00:53:37.091Z,3.27
2022-10-26T00:56:05.276Z,7.80
2022-10-26T00:58:33.164Z,6.10
2022-10-26T01:01:00.615Z,5.90
2022-10-26T01:03:28.940Z,8.90
2022-10-26T01:05:57.735Z,4.03
2022-10-26T01:08:25.408Z,7.00
2022-10-26T01:10:54.400Z,4.40
2022-10-26T01:13:22.116Z,4.97
2022-10-26T01:15:52.961Z,4.87
2022-10-26T01:18:23.644Z,4.10
2022-10-26T01:21:03.493Z,5.83
2022-10-26T01:23:35.413Z,7.47
2022-10-26T01:26:25.425Z,3.87
2022-10-26T01:29:08.938Z,4.40
2022-10-26T01:31:41.819Z,5.53
2022-10-26T01:34:12.123Z,3.23
2022-10-26T01:36:42.430Z,5.47
2022-10-26T01:39:12.048Z,3.30
2022-10-26T01:41:41.608Z,4.23
2022-10-26T01:44:11.869Z,2.60
2022-10-26T01:46:42.111Z,3.30
2022-10-26T01:49:11.176Z,2.00
2022-10-26T01:51:39.956Z,5.37
2022-10-26T01:54:07.474Z,3.30
2022-10-26T01:56:37.229Z,3.13
2022-10-26T01:59:11.548Z,6.00
2022-10-26T02:01:52.078Z,5.93
2022-10-26T02:04:25.902Z,4.97
2022-10-26T02:06:58.840Z,2.77
2022-10-26T02:09:29.836Z,2.13
2022-10-26T02:11:57.797Z,5.60
2022-10-26T02:14:28.676Z,8.50
2022-10-26T02:16:58.768Z,3.00
2022-10-26T02:19:33.035Z,1.67
2022-10-26T02:22:03.483Z,4.77
2022-10-26T02:24:32.446Z,3.33
2022-10-26T02:27:01.124Z,4.20
2022-10-26T02:29:29.681Z,2.00
2022-10-26T02:31:58.835Z,4.57
2022-10-26T02:34:28.637Z,5.80
2022-10-26T02:36:58.385Z,4.83
2022-10-26T02:39:27.377Z,3.63
2022-10-26T02:41:55.857Z,2.67
2022-10-26T02:44:25.345Z,6.00
2022-10-26T02:46:53.440Z,3.20
2022-10-26T02:49:22.424Z,2.30
2022-10-26T02:51:51.785Z,2.17
2022-10-26T02:54:20.787Z,3.53
2022-10-26T02:56:52.708Z,3.07
2022-10-26T02:59:20.977Z,5.60
2022-10-26T03:01:48.767Z,2.27
2022-10-26T03:04:16.340Z,4.27
2022-10-26T03:06:52.565Z,4.03
2022-10-26T03:09:21.149Z,4.80
2022-10-26T03:11:50.990Z,5.13
2022-10-26T03:14:18.436Z,2.10
2022-10-26T03:16:45.938Z,3.40
2022-10-26T03:19:13.436Z,4.27
2022-10-26T03:21:42.301Z,2.73
2022-10-26T03:24:11.158Z,4.50
2022-10-26T03:26:38.620Z,2.47
2022-10-26T03:29:06.184Z,3.50
2022-10-26T03:31:33.632Z,4.40
2022-10-26T03:34:01.122Z,5.70
2022-10-26T03:36:28.601Z,3.50
2022-10-26T03:38:55.975Z,3.37
2022-10-26T03:41:24.796Z,5.00
2022-10-26T03:43:52.265Z,2.40
2022-10-26T03:46:19.772Z,4.80
2022-10-26T03:48:47.214Z,2.47
2022-10-26T03:51:14.628Z,3.90
2022-10-26T03:53:42.059Z,7.30
2022-10-26T03:56:09.540Z,4.37
2022-10-26T03:58:38.364Z,3.83
2022-10-26T04:01:05.921Z,3.17
2022-10-26T04:03:33.480Z,4.70
2022-10-26T04:06:01.540Z,3.77
2022-10-26T04:08:28.953Z,3.80
2022-10-26T04:10:58.027Z,5.47
2022-10-26T04:13:28.391Z,3.10
2022-10-26T04:15:57.271Z,2.53
2022-10-26T04:18:24.713Z,4.73
2022-10-26T04:20:52.097Z,3.80
2022-10-26T04:23:20.088Z,6.40
2022-10-26T04:25:47.732Z,2.23
2022-10-26T04:28:15.531Z,4.73
2022-10-26T04:30:43.047Z,3.37
2022-10-26T04:33:11.880Z,4.97
2022-10-26T04:35:39.308Z,3.60
2022-10-26T04:38:07.467Z,3.13
2022-10-26T04:40:35.567Z,4.37
2022-10-26T04:43:03.100Z,2.67
2022-10-26T04:45:30.977Z,2.37
2022-10-26T04:48:02.533Z,4.67
2022-10-26T04:50:31.404Z,4.77
2022-10-26T04:52:59.143Z,2.73
2022-10-26T04:55:26.717Z,5.03
2022-10-26T04:57:57.142Z,5.67
2022-10-26T05:00:28.341Z,2.67
2022-10-26T05:02:59.760Z,2.53
2022-10-26T05:05:27.214Z,2.60
2022-10-26T05:07:56.784Z,3.30
2022-10-26T05:10:25.584Z,3.47
2022-10-26T05:12:53.308Z,3.13
2022-10-26T05:15:20.839Z,3.20
2022-10-26T05:17:48.855Z,4.10
2022-10-26T05:20:16.620Z,3.77
2022-10-26T05:22:44.271Z,3.60
2022-10-26T05:25:13.366Z,5.70
2022-10-26T05:27:41.189Z,5.57
2022-10-26T05:30:09.542Z,4.23
2022-10-26T05:32:37.286Z,2.63
2022-10-26T05:35:05.209Z,5.83
2022-10-26T05:37:32.933Z,5.93
2022-10-26T05:40:00.836Z,5.23
2022-10-26T05:42:30.344Z,3.50
2022-10-26T05:44:58.112Z,3.07
2022-10-26T05:47:25.563Z,5.37
2022-10-26T05:49:53.012Z,2.80
2022-10-26T05:52:20.491Z,3.97
2022-10-26T05:54:47.929Z,4.47
2022-10-26T05:57:15.594Z,3.37
2022-10-26T05:59:44.863Z,4.67
2022-10-26T06:02:18.183Z,6.07
2022-10-26T06:04:48.053Z,2.67
2022-10-26T06:07:16.562Z,6.47
2022-10-26T06:09:44.455Z,4.27
2022-10-26T06:12:14.439Z,5.33
2022-10-26T06:14:46.002Z,3.23
2022-10-26T06:17:20.355Z,9.73
2022-10-26T06:19:53.749Z,6.17
2022-10-26T06:22:29.375Z,6.13
2022-10-26T06:25:01.512Z,4.90
2022-10-26T06:27:33.748Z,6.87
2022-10-26T06:30:04.354Z,5.83
2022-10-26T06:32:31.814Z,4.70
2022-10-26T06:35:06.930Z,4.83
2022-10-26T06:37:35.002Z,4.17
2022-10-26T06:40:03.293Z,2.37
2022-10-26T06:42:32.385Z,3.03
2022-10-26T06:45:00.167Z,5.30
2022-10-26T06:47:31.413Z,4.27
2022-10-26T06:50:02.225Z,3.30
2022-10-26T06:52:32.974Z,4.63
2022-10-26T06:55:00.782Z,3.63
2022-10-26T06:57:29.648Z,2.60
2022-10-26T06:59:58.589Z,2.90
2022-10-26T07:02:26.517Z,5.13
2022-10-26T07:04:55.589Z,4.00
2022-10-26T07:07:24.064Z,2.57
2022-10-26T07:09:51.937Z,2.73
2022-10-26T07:12:19.620Z,3.10
2022-10-26T07:14:47.270Z,2.67
2022-10-26T07:17:15.094Z,4.07
2022-10-26T07:19:44.709Z,5.17
2022-10-26T07:22:13.853Z,2.20
2022-10-26T07:24:41.548Z,3.80
2022-10-26T07:27:09.074Z,2.93
2022-10-26T07:29:36.573Z,1.60
2022-10-26T07:32:04.140Z,5.97
2022-10-26T07:34:31.789Z,3.27
2022-10-26T07:37:00.150Z,4.67
2022-10-26T07:39:32.802Z,5.70
2022-10-26T07:42:00.383Z,2.47
2022-10-26T07:44:27.925Z,4.47
2022-10-26T07:46:55.544Z,2.10
2022-10-26T07:49:26.139Z,2.60
2022-10-26T07:51:55.450Z,2.50
2022-10-26T07:54:22.962Z,3.67
2022-10-26T07:56:51.947Z,2.47
2022-10-26T07:59:19.512Z,2.80
2022-10-26T08:01:47.053Z,2.93
2022-10-26T08:04:14.755Z,1.73
2022-10-26T08:06:42.324Z,2.83
2022-10-26T08:09:09.915Z,3.37
2022-10-26T08:11:37.949Z,3.50
2022-10-26T08:14:06.998Z,3.53
2022-10-26T08:16:35.280Z,5.67
2022-10-26T08:19:02.975Z,2.23
2022-10-26T08:21:45.886Z,5.43
2022-10-26T08:24:13.643Z,2.60
2022-10-26T08:26:41.310Z,5.67
2022-10-26T08:29:10.440Z,2.27
2022-10-26T08:31:38.068Z,4.30
2022-10-26T08:34:05.856Z,2.53
2022-10-26T08:36:33.446Z,2.63
2022-10-26T08:39:01.146Z,4.73
2022-10-26T08:41:33.396Z,2.93
2022-10-26T08:44:04.510Z,2.37
2022-10-26T08:46:35.010Z,4.93
2022-10-26T08:49:05.874Z,3.87
2022-10-26T08:51:35.545Z,4.20
2022-10-26T08:54:05.459Z,3.20
2022-10-26T08:56:36.049Z,2.77
2022-10-26T08:59:06.801Z,4.90
2022-10-26T09:01:36.009Z,2.20
2022-10-26T09:04:04.629Z,1.90
2022-10-26T09:06:34.574Z,2.00
2022-10-26T09:09:04.561Z,3.10
2022-10-26T09:11:40.933Z,4.10
2022-10-26T09:14:12.381Z,5.83
2022-10-26T09:16:43.851Z,2.40
2022-10-26T09:19:29.858Z,4.80
2022-10-26T09:22:03.443Z,3.40
2022-10-26T09:24:32.501Z,2.77
2022-10-26T09:29:36.256Z,3.60
2022-10-26T09:32:05.757Z,3.23
2022-10-26T09:34:35.822Z,4.20
2022-10-26T09:37:12.962Z,5.97
2022-10-26T09:39:43.333Z,3.97
2022-10-26T09:42:16.715Z,3.63
2022-10-26T09:44:46.246Z,5.67
2022-10-26T09:47:17.046Z,4.43
2022-10-26T09:49:48.662Z,3.10
2022-10-26T09:52:16.401Z,2.43
2022-10-26T09:54:44.092Z,5.27
2022-10-26T09:57:14.390Z,4.33
2022-10-26T09:59:42.353Z,4.07
2022-10-26T10:02:28.437Z,4.73
2022-10-26T10:04:57.378Z,5.33
2022-10-26T10:07:25.056Z,5.13
2022-10-26T10:10:07.345Z,5.93
2022-10-26T10:12:34.925Z,3.17
2022-10-26T10:15:02.517Z,2.80
2022-10-26T10:17:30.190Z,1.93
2022-10-26T10:20:08.611Z,3.07
2022-10-26T10:22:36.272Z,2.77
2022-10-26T10:25:06.838Z,1.97
2022-10-26T10:27:34.483Z,3.95
2022-10-26T10:30:21.196Z,3.00
2022-10-26T10:33:04.632Z,5.78
2022-10-26T10:35:33.780Z,4.43
2022-10-26T10:38:01.453Z,2.83
2022-10-26T10:40:31.202Z,3.15
2022-10-26T10:43:06.681Z,3.88
2022-10-26T10:45:34.526Z,5.70
2022-10-26T10:48:03.533Z,5.70
2022-10-26T10:50:31.378Z,4.70
2022-10-26T10:56:09.267Z,3.77
2022-10-26T10:58:45.895Z,4.87
2022-10-26T11:01:14.851Z,3.40
2022-10-26T11:03:51.451Z,3.83
2022-10-26T11:06:20.968Z,3.17
2022-10-26T11:08:51.602Z,3.60
2022-10-26T11:11:22.609Z,3.43
2022-10-26T11:13:53.360Z,6.93
2022-10-26T11:16:23.657Z,2.87
2022-10-26T11:18:55.086Z,3.67
2022-10-26T11:21:24.760Z,3.70
2022-10-26T11:23:54.624Z,3.03
2022-10-26T11:26:26.752Z,3.57
2022-10-26T11:28:57.982Z,5.57
2022-10-26T11:31:29.100Z,4.60
2022-10-26T11:34:11.596Z,5.03
2022-10-26T11:36:39.872Z,4.40
2022-10-26T11:39:12.088Z,3.00
2022-10-26T11:41:44.398Z,3.50
2022-10-26T11:44:14.981Z,3.90
2022-10-26T11:46:44.322Z,3.63
2022-10-26T11:49:15.654Z,5.23
2022-10-26T11:51:45.983Z,3.13
2022-10-26T11:54:16.476Z,3.33
2022-10-26T11:56:48.408Z,3.10
2022-10-26T11:59:18.107Z,5.47
2022-10-26T12:01:46.568Z,3.80
2022-10-26T12:04:14.999Z,2.78
2022-10-26T12:06:42.769Z,4.70
2022-10-26T12:09:14.165Z,6.53
2022-10-26T12:11:45.295Z,2.65
2022-10-26T12:14:19.173Z,4.68
2022-10-26T12:16:49.975Z,5.07
2022-10-26T12:19:21.612Z,4.43
2022-10-26T12:21:50.734Z,5.88
2022-10-26T12:24:36.830Z,2.10
2022-10-26T12:27:05.096Z,6.18
2022-10-26T12:29:38.273Z,2.92
2022-10-26T12:32:26.737Z,4.15
2022-10-26T12:35:01.949Z,4.55
2022-10-26T12:37:36.711Z,6.60
2022-10-26T12:40:23.598Z,1.92
2022-10-26T12:42:51.317Z,2.97
2022-10-26T12:45:21.815Z,4.97
2022-10-26T12:48:10.601Z,4.22
2022-10-26T12:50:43.247Z,3.65
2022-10-26T12:53:12.388Z,5.57
2022-10-26T12:56:00.437Z,3.00
2022-10-26T12:58:46.795Z,4.00
2022-10-26T13:01:32.763Z,3.58
2022-10-26T13:04:09.835Z,2.25
2022-10-26T13:06:41.377Z,3.35
2022-10-26T13:09:11.172Z,3.88
2022-10-26T13:11:46.393Z,6.90
2022-10-26T13:14:20.055Z,5.05
2022-10-26T13:16:49.045Z,3.00
2022-10-26T13:19:26.790Z,4.88
2022-10-26T13:21:54.744Z,4.22
2022-10-26T13:24:24.292Z,4.82
2022-10-26T13:27:09.943Z,6.50
2022-10-26T13:30:07.830Z,3.03
2022-10-26T13:32:37.308Z,3.38
2022-10-26T13:35:05.666Z,5.57
2022-10-26T13:37:34.928Z,4.50
2022-10-26T13:40:05.473Z,5.20
2022-10-26T13:45:10.226Z,5.97
2022-10-26T13:47:42.889Z,5.28
2022-10-26T13:50:13.874Z,5.90
2022-10-26T13:52:43.350Z,2.63
2022-10-26T13:55:16.567Z,6.65
2022-10-26T13:57:45.032Z,4.90
2022-10-26T14:00:17.698Z,4.15
2022-10-26T14:02:46.827Z,4.60
2022-10-26T14:05:15.671Z,3.55
2022-10-26T14:07:44.949Z,1.83
2022-10-26T14:10:24.598Z,2.95
2022-10-26T14:12:52.683Z,8.93
2022-10-26T14:15:24.097Z,4.00
2022-10-26T14:17:53.819Z,3.63
2022-10-26T14:20:22.477Z,9.27
2022-10-26T14:22:50.155Z,5.85
2022-10-26T14:25:26.690Z,4.10
2022-10-26T14:28:04.914Z,4.80
2022-10-26T14:30:33.777Z,4.95
2022-10-26T14:33:17.979Z,3.83
2022-10-26T14:35:45.674Z,4.43
2022-10-26T14:38:18.333Z,3.72
2022-10-26T14:40:46.326Z,3.22
2022-10-26T14:43:18.158Z,5.53
2022-10-26T14:45:49.690Z,4.75
2022-10-26T14:48:35.649Z,6.35
2022-10-26T14:51:07.745Z,3.83
2022-10-26T14:53:37.497Z,4.40
2022-10-26T14:56:06.127Z,2.95
2022-10-26T14:58:35.300Z,7.20
2022-10-26T15:01:15.439Z,3.40
2022-10-26T15:03:43.277Z,2.92
2022-10-26T15:06:29.665Z,3.25
2022-10-26T15:08:57.817Z,3.50
2022-10-26T15:11:25.598Z,11.10
2022-10-26T15:13:53.766Z,3.40
2022-10-26T15:16:22.047Z,8.25
2022-10-26T15:18:51.410Z,6.88
2022-10-26T15:21:24.438Z,4.93
2022-10-26T15:23:54.547Z,4.30
2022-10-26T15:26:22.263Z,6.85
2022-10-26T15:28:50.052Z,5.35
2022-10-26T15:31:29.058Z,4.05
2022-10-26T15:34:13.728Z,8.23
2022-10-26T15:36:41.737Z,5.20
2022-10-26T15:39:11.408Z,6.87
2022-10-26T15:41:41.494Z,5.88
2022-10-26T15:44:13.946Z,4.10
2022-10-26T15:46:41.512Z,6.50
2022-10-26T15:49:09.751Z,5.07
2022-10-26T15:51:39.054Z,3.40
2022-10-26T15:54:06.957Z,4.97
2022-10-26T15:56:37.152Z,6.10
2022-10-26T15:59:04.723Z,6.47
2022-10-26T16:01:32.477Z,5.43
2022-10-26T16:04:00.088Z,7.45
2022-10-26T16:06:28.945Z,4.53
2022-10-26T16:08:58.508Z,3.42
2022-10-26T16:11:26.103Z,7.15
2022-10-26T16:13:57.144Z,6.32
2022-10-26T16:16:28.065Z,10.07
2022-10-26T16:19:11.790Z,8.50
2022-10-26T16:21:41.767Z,8.95
2022-10-26T16:24:09.322Z,3.92
2022-10-26T16:26:36.890Z,5.45
2022-10-26T16:29:05.752Z,8.55
2022-10-26T16:31:33.338Z,5.10
2022-10-26T16:34:03.982Z,5.53
2022-10-26T16:36:34.604Z,8.60
2022-10-26T16:41:35.105Z,6.35
2022-10-26T16:44:02.663Z,6.70
2022-10-26T16:46:31.670Z,13.32
2022-10-26T16:48:59.924Z,8.48
2022-10-26T16:51:28.241Z,7.40
2022-10-26T16:53:56.369Z,5.72
2022-10-26T16:56:25.158Z,5.25
2022-10-26T16:58:52.752Z,11.20
2022-10-26T17:01:21.294Z,9.25
2022-10-26T17:03:51.013Z,4.90
2022-10-26T17:06:19.188Z,8.32
2022-10-26T17:08:47.107Z,9.15
2022-10-26T17:11:15.481Z,8.38
2022-10-26T17:13:43.770Z,6.13
2022-10-26T17:16:12.435Z,5.57
2022-10-26T17:18:40.332Z,7.30
2022-10-26T17:21:09.472Z,4.45
2022-10-26T17:23:37.170Z,5.80
2022-10-26T17:26:05.296Z,5.35
2022-10-26T17:28:33.269Z,8.73
2022-10-26T17:31:05.098Z,6.63
2022-10-26T17:33:33.107Z,10.52
2022-10-26T17:36:00.647Z,5.57
2022-10-26T17:38:31.172Z,7.68
2022-10-26T17:41:00.986Z,10.20
2022-10-26T17:43:30.706Z,8.20
2022-10-26T17:45:59.259Z,10.40
2022-10-26T17:48:27.210Z,10.10
2022-10-26T17:50:55.037Z,8.40
2022-10-26T17:53:22.722Z,10.47
2022-10-26T17:55:51.701Z,9.63
2022-10-26T17:58:19.383Z,13.03
2022-10-26T18:00:49.343Z,6.53
2022-10-26T18:03:17.788Z,6.23
2022-10-26T18:05:49.425Z,12.50
2022-10-26T18:08:17.119Z,7.33
2022-10-26T18:10:47.491Z,7.27
2022-10-26T18:13:16.738Z,6.83
2022-10-26T18:15:44.397Z,10.27
2022-10-26T18:18:12.402Z,6.63
2022-10-26T18:20:40.189Z,14.23
2022-10-26T18:23:07.951Z,8.53
2022-10-26T18:25:36.164Z,6.97
2022-10-26T18:28:03.888Z,6.97
2022-10-26T18:30:32.933Z,6.97
2022-10-26T18:33:00.593Z,4.97
2022-10-26T18:35:28.256Z,6.53
2022-10-26T18:37:55.842Z,8.30
2022-10-26T18:40:23.802Z,6.13
2022-10-26T18:42:51.421Z,7.37
2022-10-26T18:45:19.121Z,8.80
2022-10-26T18:47:48.415Z,7.87
2022-10-26T18:50:16.324Z,6.83
2022-10-26T18:52:43.855Z,7.10
2022-10-26T18:55:12.000Z,9.27
2022-10-26T18:57:39.570Z,9.90
2022-10-26T19:00:07.849Z,8.27
2022-10-26T19:02:35.576Z,10.10
2022-10-26T19:05:04.683Z,6.30
2022-10-26T19:07:32.691Z,10.33
2022-10-26T19:10:00.304Z,8.77
2022-10-26T19:12:27.990Z,8.87
2022-10-26T19:14:55.815Z,11.43
2022-10-26T19:17:23.433Z,8.10
2022-10-26T19:19:51.062Z,7.83
2022-10-26T19:22:20.249Z,7.87
2022-10-26T19:24:48.314Z,11.97
2022-10-26T19:29:48.796Z,8.73
2022-10-26T19:32:16.557Z,10.87
2022-10-26T19:34:46.103Z,11.70
2022-10-26T19:37:13.714Z,10.00
2022-10-26T19:39:43.482Z,12.10
2022-10-26T19:42:11.240Z,8.23
2022-10-26T19:44:39.168Z,12.10
2022-10-26T19:47:07.071Z,8.30
2022-10-26T19:49:34.738Z,12.43
2022-10-26T19:52:02.780Z,11.27
2022-10-26T19:54:30.449Z,7.97
2022-10-26T19:56:59.515Z,13.30
2022-10-26T19:59:27.420Z,10.70
2022-10-26T20:01:55.339Z,11.67
2022-10-26T20:04:22.947Z,10.30
2022-10-26T20:06:50.571Z,9.87
2022-10-26T20:09:18.962Z,12.40
2022-10-26T20:11:46.741Z,9.80
2022-10-26T20:14:15.904Z,10.90
2022-10-26T20:16:43.570Z,10.50
2022-10-26T20:19:11.574Z,9.20
2022-10-26T20:21:39.241Z,10.47
2022-10-26T20:24:10.062Z,10.70
2022-10-26T20:26:38.512Z,9.67
2022-10-26T20:29:06.216Z,9.53
2022-10-26T20:31:35.620Z,10.50
2022-10-26T20:34:03.353Z,10.37
2022-10-26T20:36:31.012Z,8.97
2022-10-26T20:38:59.002Z,10.93
2022-10-26T20:41:27.008Z,9.37
2022-10-26T20:43:58.070Z,10.17
2022-10-26T20:46:27.137Z,11.53
2022-10-26T20:48:56.532Z,7.47
2022-10-26T20:51:27.201Z,9.37
2022-10-26T20:54:01.257Z,9.93
2022-10-26T20:56:29.528Z,6.93
2022-10-26T20:58:57.959Z,16.23
2022-10-26T21:01:26.378Z,10.93
2022-10-26T21:03:54.257Z,13.60
2022-10-26T21:06:23.520Z,10.13
2022-10-26T21:08:51.520Z,9.70
2022-10-26T21:11:19.508Z,10.17
2022-10-26T21:13:48.171Z,9.07
2022-10-26T21:16:16.343Z,7.40
2022-10-26T21:18:44.226Z,8.03
2022-10-26T21:21:12.365Z,12.13
2022-10-26T21:23:41.979Z,8.27
2022-10-26T21:26:10.248Z,9.77
2022-10-26T21:28:39.027Z,6.17
2022-10-26T21:31:07.609Z,8.47
2022-10-26T21:33:35.537Z,9.03
2022-10-26T21:36:03.705Z,8.27
2022-10-26T21:38:31.889Z,9.17
2022-10-26T21:41:04.740Z,12.13
2022-10-26T21:43:32.696Z,7.57
2022-10-26T21:46:03.497Z,8.67
2022-10-26T21:48:32.106Z,9.13
2022-10-26T21:51:01.645Z,8.90
2022-10-26T21:53:29.357Z,8.50
2022-10-26T21:56:00.509Z,9.33
2022-10-26T21:58:29.556Z,9.80
2022-10-26T22:01:04.610Z,10.03
2022-10-26T22:03:32.358Z,12.37
2022-10-26T22:05:59.958Z,10.33
2022-10-26T22:08:27.654Z,9.90
2022-10-26T22:10:55.303Z,9.73
2022-10-26T22:13:22.976Z,9.63
2022-10-26T22:16:01.025Z,10.93
2022-10-26T22:18:28.623Z,6.70
2022-10-26T22:20:56.924Z,8.67
2022-10-26T22:23:24.603Z,7.20
2022-10-26T22:25:52.256Z,6.60
2022-10-26T22:28:19.930Z,6.57
2022-10-26T22:30:47.519Z,7.67
2022-10-26T22:33:16.415Z,10.43
2022-10-26T22:35:44.589Z,8.10
2022-10-26T22:38:12.132Z,8.57
2022-10-26T22:40:39.635Z,12.73
2022-10-26T22:43:07.196Z,6.80
2022-10-26T22:45:34.698Z,9.23
2022-10-26T22:48:02.255Z,10.10
2022-10-26T22:50:31.136Z,8.40
2022-10-26T22:52:58.713Z,8.60
2022-10-26T22:55:26.300Z,6.93
2022-10-26T22:57:54.721Z,6.17
2022-10-26T23:00:22.769Z,7.37
2022-10-26T23:02:50.203Z,9.97
2022-10-26T23:05:17.787Z,7.63
2022-10-26T23:07:46.719Z,8.23
2022-10-26T23:10:14.338Z,7.03
2022-10-26T23:12:41.914Z,6.37
2022-10-26T23:15:09.921Z,7.53
2022-10-26T23:17:37.472Z,6.27
2022-10-26T23:20:05.351Z,6.37
2022-10-26T23:22:32.875Z,6.93
2022-10-26T23:25:01.762Z,8.57
2022-10-26T23:27:29.258Z,11.30
2022-10-26T23:29:56.790Z,12.70
2022-10-26T23:32:24.269Z,14.67
2022-10-26T23:34:51.798Z,9.70
2022-10-26T23:37:19.562Z,9.77
2022-10-26T23:39:47.099Z,10.77
2022-10-26T23:42:15.981Z,11.33
2022-10-26T23:44:43.454Z,8.07
2022-10-26T23:47:10.994Z,6.33
2022-10-26T23:49:38.508Z,5.67
2022-10-26T23:52:06.120Z,7.30
2022-10-26T23:54:33.614Z,13.67
2022-10-26T23:57:01.168Z,7.13
2022-10-26T23:59:30.040Z,9.43
